Estación de El Carmen

Ultimos registro cada 15 minutos 75
Estación Fecha / Hora Temperatura Humedad Lluvia Velocidad Dirección Radiación Presion
75 El Carmen 06-05-2026 18:30 12 91,2 0 0 177 0,6 978,3
74 El Carmen 06-05-2026 18:15 12,3 91,4 0 0 180 0,6 978,1
73 El Carmen 06-05-2026 18:00 12,4 90,9 0 0 187 0,6 977,8
72 El Carmen 06-05-2026 17:45 12,5 89,8 0 0 218 3,1 977,4
71 El Carmen 06-05-2026 17:30 12,8 90,1 0 0 183 16,9 977,4
70 El Carmen 06-05-2026 17:15 13,1 90,9 0 0 180 28,1 977,2
69 El Carmen 06-05-2026 17:00 13,2 90,2 0 0 183 21,9 977,1
68 El Carmen 06-05-2026 16:45 13,1 90,4 0,2 0 192 44,4 977,1
67 El Carmen 06-05-2026 16:30 13,4 89,6 0 0 184 35,6 977
66 El Carmen 06-05-2026 16:15 13,6 90,2 0 0 190 64,4 976,9
65 El Carmen 06-05-2026 16:00 13,7 90,4 0 0 205 61,9 976,9
64 El Carmen 06-05-2026 15:45 14,1 91,4 0,4 0 198 99,4 976,5
63 El Carmen 06-05-2026 15:30 14,8 91,4 0,4 0 216 61,9 976,3
62 El Carmen 06-05-2026 15:15 15,2 91,8 0 0 236 129,4 976,3
61 El Carmen 06-05-2026 15:00 15 91,2 0 0 250 210,6 975,9
60 El Carmen 06-05-2026 14:45 14,7 91,6 0,2 0 282 133,1 975,7
59 El Carmen 06-05-2026 14:30 14,6 91 0 0 274 118,1 975,5
58 El Carmen 06-05-2026 14:15 14,8 92,5 0 0 298 133,1 975,4
57 El Carmen 06-05-2026 14:00 14,1 93 1,4 0 284 83,1 975,4
56 El Carmen 06-05-2026 13:45 14,1 92,3 0,2 0,5 298 33,1 975,4
55 El Carmen 06-05-2026 13:30 13,8 92,8 0,4 0 330 46,9 975,4
54 El Carmen 06-05-2026 13:15 13,8 92,1 1,4 0 314 61,9 974,9
53 El Carmen 06-05-2026 13:00 13,9 90,9 1,2 0 310 49,4 974,9
52 El Carmen 06-05-2026 12:45 14,2 90,4 1 0,5 289 34,4 974,7
51 El Carmen 06-05-2026 12:30 14,3 89,7 0,6 1 289 14,4 974,5
50 El Carmen 06-05-2026 12:15 14,6 90,7 0,2 0 284 41,9 974,8
49 El Carmen 06-05-2026 12:00 14 92,8 0,6 0 307 65,6 974,4
48 El Carmen 06-05-2026 11:45 13,7 91,4 0 0 7 48,1 974,3
47 El Carmen 06-05-2026 11:30 15 89,3 0 0 347 84,4 974,3
46 El Carmen 06-05-2026 11:15 14,6 90,4 0 0 334 198,1 974
45 El Carmen 06-05-2026 11:00 14,2 90,2 0,4 0 306 178,1 974
44 El Carmen 06-05-2026 10:45 13,6 89,2 0,8 1 313 113,1 973,6
43 El Carmen 06-05-2026 10:30 13,1 88,4 1,8 0,5 312 40,6 973,1
42 El Carmen 06-05-2026 10:15 14,5 80,9 0 1,5 321 10,6 972,7
41 El Carmen 06-05-2026 10:00 14,7 80,4 0 2,5 330 35,6 971,9
40 El Carmen 06-05-2026 09:45 14,8 80,7 0 2 323 78,1 972
39 El Carmen 06-05-2026 09:30 14,4 83,4 0 1 319 74,4 972,5
38 El Carmen 06-05-2026 09:15 13,6 87,2 0 0 351 83,1 972,4
37 El Carmen 06-05-2026 09:00 12,6 89,5 0 0 15 111,9 972,3
36 El Carmen 06-05-2026 08:45 12,6 89,5 0,2 0 330 40,6 972,4
35 El Carmen 06-05-2026 08:30 12,6 88,4 0 0 299 15,6 972,9
34 El Carmen 06-05-2026 08:15 13,3 86,6 0 0 327 13,1 972,8
33 El Carmen 06-05-2026 08:00 12,7 88,7 0 0 0 43,1 972,6
32 El Carmen 06-05-2026 07:45 11,8 89,8 0 0 6 83,1 972,4
31 El Carmen 06-05-2026 07:30 10,9 92,3 0 0 3 14,4 972,3
30 El Carmen 06-05-2026 07:15 10,2 93,7 0 0 355 0,6 972
29 El Carmen 06-05-2026 07:00 10,2 95,9 0 0 350 0,6 971,7
28 El Carmen 06-05-2026 06:45 9,9 97,2 0 0 1 0,6 971,7
27 El Carmen 06-05-2026 06:30 9 97,1 0 0 11 0,6 972,1
26 El Carmen 06-05-2026 06:15 7,9 97,1 0 0 357 0,6 972,1
25 El Carmen 06-05-2026 06:00 8 96,5 0 0 355 0,6 972,1
24 El Carmen 06-05-2026 05:45 8,7 96,9 0 0 25 0,6 972,1
23 El Carmen 06-05-2026 05:30 7,5 96,8 0 0 59 0,6 971,9
22 El Carmen 06-05-2026 05:15 6,4 96 0 0 60 0,6 971,9
21 El Carmen 06-05-2026 05:00 7 96,4 0 0 60 0,6 971,8
20 El Carmen 06-05-2026 04:45 7,5 95,9 0 0 60 0,6 971,8
19 El Carmen 06-05-2026 04:30 8,3 95,7 0 0 60 0,6 971,9
18 El Carmen 06-05-2026 04:15 8,7 95,6 0 0 60 0,6 972
17 El Carmen 06-05-2026 04:00 9,1 95,5 0 0 60 0,6 972
16 El Carmen 06-05-2026 03:45 9,4 95,1 0 0 34 0,6 972,2
15 El Carmen 06-05-2026 03:30 9,1 94,4 0 0 348 0,6 972,4
14 El Carmen 06-05-2026 03:15 10 94,1 0 0 348 0,6 972,3
13 El Carmen 06-05-2026 03:00 10,1 94,7 0 0 348 0,6 972,3
12 El Carmen 06-05-2026 02:45 9,9 93,9 0 0 351 0,6 972
11 El Carmen 06-05-2026 02:30 10,6 93,6 0 0 10 0,6 972
10 El Carmen 06-05-2026 02:15 10,8 94 0 0 7 0,6 971,9
9 El Carmen 06-05-2026 02:00 10,6 94,8 0 0 21 0,6 971,9
8 El Carmen 06-05-2026 01:45 9,2 95 0 0 88 0,6 972
7 El Carmen 06-05-2026 01:30 10,1 94,9 0 0 88 0,6 972,1
6 El Carmen 06-05-2026 01:15 9,5 94,5 0 0 88 0,6 972,1
5 El Carmen 06-05-2026 01:00 10,1 93,9 0 0 88 0,6 972,5
4 El Carmen 06-05-2026 00:45 10,2 93,6 0 0 88 0,6 972,5
3 El Carmen 06-05-2026 00:30 10,8 93,3 0 0 88 0,6 972,6
2 El Carmen 06-05-2026 00:15 10,8 93,3 0 0 88 0,6 972,6
1 El Carmen 06-05-2026 00:00 10,9 93,1 0 0 88 0,6 972,7